Portada
METAR-TAF:

METAR-TAF

Aeroports :

Teheran, Iran

latitud: 35-41N, longitud: 051-21E, altitud: 1204 m

Observació

L'informe es va fer fa 44 minuts, a les 10:30 UTC
Vent 12 kt del Oest
Temperatura 13°C
Humitat 30%
Pressió 1015 hPa
Visibilitat 10 km o més
Escasses núvols a una alçada de 3500 ft

METAR: OIII 201030Z 26012KT 9999 FEW035 13/M04 Q1014 A2997

Hora: 14:44 (11:14 UTC)

Pronòstic

L'informe es va fer fa 5 hores i 44 minuts, a les 05:30 UTC
Pronòstic vàlid del 20 a les 06 UTC al 21 a les 12 UTC
Vent 8 kt del Nord/Nord-Oest
Visibilitat 10 km o més
sense núvols per sota de 1500 mi sense presència de cumulonimbus.
Temporalment
l' 21 a les 06 UTC al 21 a les 12 UTC
Escasses núvols a una alçada de 3500 ft, Cumulus congestus.
Núvols disperses a una alçada de 4000 ft
Cel ennuvolat a una alçada de 10000 ft

TAF: OIII 200530Z 2006/2112 33004MPS CAVOK TEMPO 2106/2112 FEW035TCU SCT040 BKN100

Observacions i pronòstics meteorològics de més de 4000 aeroports (METAR i TAF).

Les estacions disponibles són els punts grocs i vermells al mapa.

Posi el ratolí al punt desitjat per veure el nom de l'estació.

Feu clic per veure les observacions i els pronòstics meteorològics.

Per canviar el mapa: feu clic els botons verds amb una creu de color negre per apropar; al botó verd amb un guió per allunyar la imatge; o en les fletxes verdes per a mapes adjacents.


METAR-TAF: